createdAt,value
2023-04-16T00:03:58.355Z,102697.09
2023-04-16T00:09:01.604Z,102696.06
2023-04-16T00:14:05.055Z,102691.91
2023-04-16T00:19:07.868Z,102692.84
2023-04-16T00:24:10.943Z,102693.13
2023-04-16T00:29:13.591Z,102689.38
2023-04-16T00:34:16.572Z,102700.25
2023-04-16T00:39:19.578Z,102702.72
2023-04-16T00:44:24.709Z,102700.44
2023-04-16T00:49:30.198Z,102707.59
2023-04-16T00:54:33.132Z,102705.25
2023-04-16T00:59:36.142Z,102708.88
2023-04-16T01:04:38.858Z,102708.88
2023-04-16T01:09:42.059Z,102713.22
2023-04-16T01:14:46.176Z,102716.56
2023-04-16T01:19:48.980Z,102713.47
2023-04-16T01:24:51.953Z,102720.25
2023-04-16T01:29:56.546Z,102720.06
2023-04-16T01:35:10.677Z,102731.53
2023-04-16T01:40:13.513Z,102730.72
2023-04-16T01:45:16.300Z,102735.81
2023-04-16T01:50:20.466Z,102742.56
2023-04-16T01:55:23.992Z,102747.97
2023-04-16T02:00:26.916Z,102757.59
2023-04-16T02:05:29.901Z,102741.25
2023-04-16T02:10:33.715Z,102754.34
2023-04-16T02:15:37.160Z,102757.06
2023-04-16T02:20:44.790Z,102763.31
2023-04-16T02:25:48.363Z,102773.75
2023-04-16T02:30:52.076Z,102762.91
2023-04-16T02:35:56.389Z,102775.47
2023-04-16T02:40:59.633Z,102778.34
2023-04-16T02:46:02.584Z,102780.25
2023-04-16T02:51:06.201Z,102776.41
2023-04-16T02:56:09.089Z,102785.75
2023-04-16T03:01:12.099Z,102784.97
2023-04-16T03:06:15.174Z,102792.63
2023-04-16T03:11:17.858Z,102791.56
2023-04-16T03:16:20.639Z,102802.09
2023-04-16T03:21:23.605Z,102793.69
2023-04-16T03:26:26.673Z,102804.84
2023-04-16T03:31:30.438Z,102804.53
2023-04-16T03:36:34.799Z,102802.88
2023-04-16T03:41:37.770Z,102809.19
2023-04-16T03:46:40.738Z,102804.88
2023-04-16T03:51:43.692Z,102812.00
2023-04-16T03:56:46.787Z,102815.66
2023-04-16T04:01:49.777Z,102815.41
2023-04-16T04:06:53.372Z,102825.19
2023-04-16T04:11:56.508Z,102813.75
2023-04-16T04:16:59.222Z,102818.59
2023-04-16T04:22:02.092Z,102814.03
2023-04-16T04:27:05.010Z,102816.28
2023-04-16T04:32:08.689Z,102816.53
2023-04-16T04:37:11.966Z,102817.13
2023-04-16T04:42:19.186Z,102820.38
2023-04-16T04:47:22.144Z,102825.91
2023-04-16T04:52:24.836Z,102820.00
2023-04-16T04:57:28.420Z,102823.72
2023-04-16T05:02:31.566Z,102814.63
2023-04-16T05:07:34.532Z,102833.34
2023-04-16T05:12:37.460Z,102835.03
2023-04-16T05:17:40.142Z,102838.81
2023-04-16T05:22:42.988Z,102828.16
2023-04-16T05:27:45.875Z,102847.31
2023-04-16T05:32:48.744Z,102840.47
2023-04-16T05:37:51.794Z,102836.25
2023-04-16T05:42:54.452Z,102849.28
2023-04-16T05:47:57.081Z,102853.19
2023-04-16T05:52:59.915Z,102852.31
2023-04-16T05:58:04.580Z,102859.22
2023-04-16T06:03:07.524Z,102866.38
2023-04-16T06:08:10.533Z,102873.69
2023-04-16T06:13:13.409Z,102862.66
2023-04-16T06:18:16.411Z,102866.44
2023-04-16T06:23:19.309Z,102876.88
2023-04-16T06:28:21.982Z,102868.13
2023-04-16T06:33:24.855Z,102866.97
2023-04-16T06:38:27.761Z,102857.88
2023-04-16T06:43:32.124Z,102851.50
2023-04-16T06:48:34.960Z,102859.56
2023-04-16T06:53:38.241Z,102852.50
2023-04-16T06:58:41.376Z,102859.81
2023-04-16T07:03:45.052Z,102857.31
2023-04-16T07:08:47.954Z,102858.81
2023-04-16T07:13:51.473Z,102842.19
2023-04-16T07:18:54.039Z,102844.81
2023-04-16T07:23:56.768Z,102845.09
2023-04-16T07:28:59.573Z,102847.34
2023-04-16T07:34:04.070Z,102844.66
2023-04-16T07:39:08.254Z,102834.06
2023-04-16T07:44:11.515Z,102831.50
2023-04-16T07:49:14.383Z,102829.94
2023-04-16T07:54:17.216Z,102822.06
2023-04-16T07:59:23.376Z,102822.28
2023-04-16T08:04:27.023Z,102825.81
2023-04-16T08:09:30.390Z,102805.31
2023-04-16T08:14:33.449Z,102809.00
2023-04-16T08:19:36.346Z,102799.50
2023-04-16T08:24:39.023Z,102798.91
2023-04-16T08:29:41.806Z,102787.25
2023-04-16T08:34:45.475Z,102794.84
2023-04-16T08:39:48.597Z,102791.25
2023-04-16T08:44:56.364Z,102781.38
2023-04-16T08:49:59.656Z,102772.75
2023-04-16T08:55:12.341Z,102772.06
2023-04-16T09:00:16.299Z,102774.22
2023-04-16T09:05:20.975Z,102768.31
2023-04-16T09:10:23.995Z,102761.66
2023-04-16T09:15:27.263Z,102759.97
2023-04-16T09:20:30.249Z,102756.97
2023-04-16T09:25:35.298Z,102759.59
2023-04-16T09:30:39.447Z,102754.69
2023-04-16T09:35:52.549Z,102748.94
2023-04-16T09:41:09.720Z,102744.41
2023-04-16T09:46:13.792Z,102741.06
2023-04-16T09:51:16.639Z,102740.47
2023-04-16T09:56:25.437Z,102728.16
2023-04-16T10:01:29.443Z,102721.72
2023-04-16T10:06:32.353Z,102728.63
2023-04-16T10:11:39.109Z,102720.38
2023-04-16T10:16:42.534Z,102727.78
2023-04-16T10:21:46.269Z,102717.63
2023-04-16T10:26:52.785Z,102711.50
2023-04-16T10:31:57.057Z,102718.69
2023-04-16T10:37:02.335Z,102704.06
2023-04-16T10:42:12.711Z,102712.09
2023-04-16T10:47:15.961Z,102713.25
2023-04-16T10:52:18.869Z,102699.09
2023-04-16T10:57:23.502Z,102687.19
2023-04-16T11:02:29.771Z,102684.41
2023-04-16T11:07:36.209Z,102669.75
2023-04-16T11:12:45.074Z,102672.28
2023-04-16T11:17:52.282Z,102666.50
2023-04-16T11:22:57.316Z,102655.91
2023-04-16T11:28:00.286Z,102654.22
2023-04-16T11:33:08.118Z,102647.09
2023-04-16T11:38:11.259Z,102629.69
2023-04-16T11:43:16.487Z,102626.22
2023-04-16T11:48:19.310Z,102622.03
2023-04-16T11:53:22.741Z,102609.63
2023-04-16T11:58:26.020Z,102613.13
2023-04-16T12:03:46.543Z,102608.66
2023-04-16T12:08:49.432Z,102601.91
2023-04-16T12:14:11.522Z,102600.03
2023-04-16T12:19:14.315Z,102599.66
2023-04-16T12:24:24.381Z,102586.72
2023-04-16T12:29:28.278Z,102588.16
2023-04-16T12:34:48.749Z,102588.66
2023-04-16T12:39:52.551Z,102567.28
2023-04-16T12:44:56.836Z,102584.16
2023-04-16T12:49:59.910Z,102563.06
2023-04-16T12:55:03.904Z,102563.94
2023-04-16T13:00:08.770Z,102560.91
2023-04-16T13:05:11.771Z,102555.16
2023-04-16T13:10:14.532Z,102539.50
2023-04-16T13:15:17.213Z,102544.19
2023-04-16T13:20:20.755Z,102540.69
2023-04-16T13:25:24.742Z,102535.09
2023-04-16T13:30:29.585Z,102538.13
2023-04-16T13:35:33.448Z,102535.69
2023-04-16T13:40:36.190Z,102525.59
2023-04-16T13:45:39.214Z,102531.84
2023-04-16T13:50:42.197Z,102527.22
2023-04-16T13:55:45.252Z,102527.94
2023-04-16T14:00:48.378Z,102530.16
2023-04-16T14:05:51.335Z,102531.88
2023-04-16T14:10:55.617Z,102523.94
2023-04-16T14:15:58.326Z,102523.59
2023-04-16T14:21:02.547Z,102525.13
2023-04-16T14:26:05.597Z,102524.50
2023-04-16T14:31:08.366Z,102524.22
2023-04-16T14:36:11.213Z,102518.34
2023-04-16T14:41:14.197Z,102525.75
2023-04-16T14:46:18.296Z,102522.31
2023-04-16T14:51:21.278Z,102518.56
2023-04-16T14:56:24.276Z,102519.34
2023-04-16T15:01:27.353Z,102527.03
2023-04-16T15:06:30.162Z,102519.59
2023-04-16T15:11:33.193Z,102518.38
2023-04-16T15:16:36.125Z,102518.13
2023-04-16T15:21:38.890Z,102521.25
2023-04-16T15:26:41.492Z,102523.81
2023-04-16T15:31:44.493Z,102525.66
2023-04-16T15:36:48.367Z,102525.78
2023-04-16T15:46:57.084Z,102534.00
2023-04-16T15:52:00.772Z,102528.13
2023-04-16T15:57:03.679Z,102530.75
2023-04-16T16:02:06.959Z,102528.25
2023-04-16T16:07:09.721Z,102528.56
2023-04-16T16:12:12.487Z,102537.91
2023-04-16T16:17:16.918Z,102548.91
2023-04-16T16:22:20.929Z,102546.56
2023-04-16T16:27:24.004Z,102545.41
2023-04-16T16:32:27.298Z,102550.19
2023-04-16T16:37:30.324Z,102554.56
2023-04-16T16:42:33.100Z,102551.44
2023-04-16T16:47:35.929Z,102562.16
2023-04-16T16:52:39.281Z,102568.56
2023-04-16T16:57:43.242Z,102568.44
2023-04-16T17:02:46.868Z,102568.69
2023-04-16T17:07:49.666Z,102572.00
2023-04-16T17:12:52.433Z,102572.72
2023-04-16T17:17:55.349Z,102587.50
2023-04-16T17:22:59.688Z,102581.31
2023-04-16T17:28:03.384Z,102586.50
2023-04-16T17:33:08.887Z,102587.94
2023-04-16T17:38:12.041Z,102589.84
2023-04-16T17:43:17.040Z,102586.19
2023-04-16T17:48:19.757Z,102589.09
2023-04-16T17:53:22.746Z,102589.03
2023-04-16T17:58:26.719Z,102590.72
2023-04-16T18:03:30.063Z,102589.28
2023-04-16T18:08:34.051Z,102587.75
2023-04-16T18:13:36.633Z,102590.06
2023-04-16T18:18:39.382Z,102585.66
2023-04-16T18:23:42.153Z,102578.72
2023-04-16T18:28:45.422Z,102575.16
2023-04-16T18:33:55.279Z,102573.81
2023-04-16T18:39:02.479Z,102562.25
2023-04-16T18:44:06.576Z,102566.97
2023-04-16T18:49:09.539Z,102566.56
2023-04-16T18:54:12.445Z,102571.25
2023-04-16T18:59:15.355Z,102567.66
2023-04-16T19:04:18.049Z,102568.69
2023-04-16T19:09:20.910Z,102565.56
2023-04-16T19:14:23.734Z,102567.91
2023-04-16T19:19:27.111Z,102564.72
2023-04-16T19:24:30.874Z,102564.84
2023-04-16T19:29:35.887Z,102569.03
2023-04-16T19:34:57.308Z,102573.78
2023-04-16T19:40:00.066Z,102574.28
2023-04-16T19:45:03.578Z,102582.38
2023-04-16T19:50:07.963Z,102591.47
2023-04-16T19:55:10.979Z,102586.44
2023-04-16T20:00:14.422Z,102585.06
2023-04-16T20:05:35.752Z,102578.28
2023-04-16T20:10:38.544Z,102583.06
2023-04-16T20:15:41.343Z,102584.34
2023-04-16T20:20:43.974Z,102588.44
2023-04-16T20:25:46.996Z,102584.19
2023-04-16T20:30:51.133Z,102586.19
2023-04-16T20:35:53.889Z,102580.78
2023-04-16T20:41:16.986Z,102586.91
2023-04-16T20:46:24.540Z,102583.19
2023-04-16T20:51:30.226Z,102581.78
2023-04-16T20:56:33.040Z,102587.19
2023-04-16T21:01:36.295Z,102581.03
2023-04-16T21:06:43.234Z,102579.97
2023-04-16T21:11:46.203Z,102570.91
2023-04-16T21:16:48.892Z,102573.63
2023-04-16T21:21:53.853Z,102572.44
2023-04-16T21:26:57.592Z,102566.00
2023-04-16T21:32:00.403Z,102571.81
2023-04-16T21:37:03.188Z,102570.06
2023-04-16T21:42:06.113Z,102567.06
2023-04-16T21:47:08.719Z,102567.53
2023-04-16T21:52:18.516Z,102567.28
2023-04-16T21:57:21.302Z,102560.25
2023-04-16T22:02:24.204Z,102551.41
2023-04-16T22:07:27.386Z,102552.63
2023-04-16T22:12:30.803Z,102558.13
2023-04-16T22:17:34.609Z,102557.28
2023-04-16T22:22:37.409Z,102548.09
2023-04-16T22:27:40.845Z,102542.97
2023-04-16T22:32:43.621Z,102555.28
2023-04-16T22:37:46.773Z,102554.63
2023-04-16T22:42:50.533Z,102555.09
2023-04-16T22:47:53.710Z,102548.47
2023-04-16T22:52:56.518Z,102554.72
2023-04-16T22:57:59.079Z,102551.50
2023-04-16T23:03:02.179Z,102548.66
2023-04-16T23:08:05.519Z,102563.97
2023-04-16T23:13:08.288Z,102546.09
2023-04-16T23:18:11.169Z,102541.81
2023-04-16T23:23:13.950Z,102551.31
2023-04-16T23:28:16.762Z,102550.56
2023-04-16T23:33:19.353Z,102549.72
2023-04-16T23:38:21.865Z,102558.66
2023-04-16T23:43:24.716Z,102559.13
2023-04-16T23:48:27.358Z,102568.88
2023-04-16T23:53:30.055Z,102563.41
2023-04-16T23:58:32.687Z,102559.03
